createdAt,value
2022-09-23T00:01:14.700Z,100374.91
2022-09-23T00:03:45.347Z,100374.38
2022-09-23T00:06:14.935Z,100380.31
2022-09-23T00:08:41.733Z,100377.13
2022-09-23T00:11:10.941Z,100367.00
2022-09-23T00:13:39.390Z,100377.75
2022-09-23T00:16:08.018Z,100375.63
2022-09-23T00:18:34.775Z,100372.72
2022-09-23T00:21:05.686Z,100379.16
2022-09-23T00:23:32.861Z,100375.75
2022-09-23T00:26:01.854Z,100373.09
2022-09-23T00:28:28.910Z,100379.56
2022-09-23T00:30:55.415Z,100376.88
2022-09-23T00:33:22.158Z,100380.63
2022-09-23T00:35:49.847Z,100385.22
2022-09-23T00:38:16.317Z,100376.13
2022-09-23T00:40:46.123Z,100372.69
2022-09-23T00:43:14.954Z,100382.13
2022-09-23T00:45:50.545Z,100379.75
2022-09-23T00:48:20.942Z,100371.22
2022-09-23T00:50:53.485Z,100372.84
2022-09-23T00:53:26.630Z,100370.72
2022-09-23T00:55:59.286Z,100374.00
2022-09-23T00:58:31.243Z,100363.28
2022-09-23T01:01:00.487Z,100374.53
2022-09-23T01:03:27.989Z,100380.41
2022-09-23T01:05:55.328Z,100378.53
2022-09-23T01:08:23.550Z,100372.09
2022-09-23T01:11:15.066Z,100373.69
2022-09-23T01:14:05.587Z,100371.00
2022-09-23T01:16:54.132Z,100365.38
2022-09-23T01:19:43.563Z,100367.53
2022-09-23T01:22:22.092Z,100360.84
2022-09-23T01:24:48.722Z,100359.22
2022-09-23T01:27:34.920Z,100361.66
2022-09-23T01:30:31.939Z,100362.97
2022-09-23T01:33:31.099Z,100363.78
2022-09-23T01:36:00.690Z,100368.88
2022-09-23T01:38:37.061Z,100372.38
2022-09-23T01:41:09.883Z,100368.34
2022-09-23T01:44:08.868Z,100360.63
2022-09-23T01:46:48.277Z,100369.75
2022-09-23T01:49:34.391Z,100371.91
2022-09-23T01:52:25.710Z,100366.31
2022-09-23T01:54:59.922Z,100369.00
2022-09-23T01:57:32.259Z,100360.44
2022-09-23T02:00:15.185Z,100363.41
2022-09-23T02:02:57.645Z,100356.22
2022-09-23T02:05:34.286Z,100362.38
2022-09-23T02:08:10.934Z,100365.09
2022-09-23T02:10:44.707Z,100367.28
2022-09-23T02:13:24.189Z,100366.00
2022-09-23T02:15:55.701Z,100369.22
2022-09-23T02:18:27.030Z,100362.28
2022-09-23T02:20:59.296Z,100364.72
2022-09-23T02:23:50.494Z,100358.06
2022-09-23T02:26:30.475Z,100364.22
2022-09-23T02:29:08.053Z,100365.31
2022-09-23T02:31:56.509Z,100358.31
2022-09-23T02:34:47.836Z,100359.16
2022-09-23T02:37:37.186Z,100354.31
2022-09-23T02:40:09.561Z,100351.31
2022-09-23T02:43:03.955Z,100361.25
2022-09-23T02:45:31.177Z,100359.91
2022-09-23T02:48:04.465Z,100360.69
2022-09-23T02:50:33.243Z,100361.50
2022-09-23T02:53:00.983Z,100354.03
2022-09-23T02:55:33.334Z,100360.44
2022-09-23T02:58:01.611Z,100362.09
2022-09-23T03:00:38.269Z,100365.59
2022-09-23T03:03:57.108Z,100364.28
2022-09-23T03:06:39.453Z,100373.13
2022-09-23T03:09:14.151Z,100371.84
2022-09-23T03:11:48.870Z,100377.69
2022-09-23T03:14:29.553Z,100372.88
2022-09-23T03:17:17.287Z,100379.88
2022-09-23T03:19:58.046Z,100384.13
2022-09-23T03:22:40.462Z,100379.28
2022-09-23T03:25:11.503Z,100377.16
2022-09-23T03:27:42.542Z,100383.00
2022-09-23T03:30:10.445Z,100379.53
2022-09-23T03:32:38.405Z,100390.75
2022-09-23T03:35:06.090Z,100378.16
2022-09-23T03:37:49.383Z,100387.22
2022-09-23T03:40:30.044Z,100385.63
2022-09-23T03:42:58.708Z,100385.09
2022-09-23T03:45:30.262Z,100392.31
2022-09-23T03:47:56.999Z,100384.84
2022-09-23T03:50:24.361Z,100386.19
2022-09-23T03:52:51.136Z,100380.81
2022-09-23T03:55:19.312Z,100381.31
2022-09-23T03:57:46.384Z,100380.25
2022-09-23T04:00:14.596Z,100380.00
2022-09-23T04:02:41.467Z,100381.06
2022-09-23T04:05:09.437Z,100379.72
2022-09-23T04:07:35.989Z,100385.09
2022-09-23T04:10:02.611Z,100384.28
2022-09-23T04:12:29.088Z,100381.03
2022-09-23T04:14:55.781Z,100377.56
2022-09-23T04:17:22.241Z,100378.06
2022-09-23T04:19:48.694Z,100384.75
2022-09-23T04:22:15.339Z,100392.50
2022-09-23T04:24:41.838Z,100396.75
2022-09-23T04:27:08.410Z,100390.59
2022-09-23T04:29:35.118Z,100386.03
2022-09-23T04:32:01.811Z,100388.72
2022-09-23T04:34:28.338Z,100383.66
2022-09-23T04:36:55.086Z,100381.53
2022-09-23T04:39:21.607Z,100385.59
2022-09-23T04:41:48.111Z,100383.72
2022-09-23T04:44:15.320Z,100393.63
2022-09-23T04:46:43.875Z,100392.84
2022-09-23T04:49:10.726Z,100394.66
2022-09-23T04:51:37.281Z,100397.59
2022-09-23T04:54:03.901Z,100396.28
2022-09-23T04:56:34.049Z,100394.16
2022-09-23T04:59:01.928Z,100398.69
2022-09-23T05:01:34.489Z,100392.00
2022-09-23T05:04:05.189Z,100398.44
2022-09-23T05:06:34.531Z,100394.44
2022-09-23T05:09:02.118Z,100397.09
2022-09-23T05:11:31.470Z,100396.28
2022-09-23T05:13:58.317Z,100397.66
2022-09-23T05:16:26.157Z,100395.47
2022-09-23T05:18:53.470Z,100393.38
2022-09-23T05:21:24.509Z,100399.78
2022-09-23T05:23:56.610Z,100392.59
2022-09-23T05:26:25.472Z,100404.34
2022-09-23T05:28:53.635Z,100396.31
2022-09-23T05:31:23.203Z,100397.69
2022-09-23T05:33:52.233Z,100404.91
2022-09-23T05:36:20.626Z,100411.06
2022-09-23T05:38:49.207Z,100415.06
2022-09-23T05:41:17.245Z,100415.06
2022-09-23T05:43:44.071Z,100418.28
2022-09-23T05:46:16.106Z,100423.63
2022-09-23T05:48:45.549Z,100415.84
2022-09-23T05:51:25.456Z,100418.78
2022-09-23T05:53:55.825Z,100419.31
2022-09-23T05:56:24.198Z,100423.53
2022-09-23T05:58:52.483Z,100426.22
2022-09-23T06:01:21.423Z,100432.13
2022-09-23T06:03:49.190Z,100424.88
2022-09-23T06:06:20.377Z,100430.78
2022-09-23T06:08:48.028Z,100432.13
2022-09-23T06:11:15.034Z,100434.50
2022-09-23T06:13:41.762Z,100434.50
2022-09-23T06:16:13.806Z,100431.56
2022-09-23T06:18:45.169Z,100436.34
2022-09-23T06:21:17.282Z,100439.56
2022-09-23T06:23:45.046Z,100439.53
2022-09-23T06:26:16.254Z,100447.00
2022-09-23T06:28:44.901Z,100450.22
2022-09-23T06:31:16.587Z,100445.91
2022-09-23T06:33:45.066Z,100449.63
2022-09-23T06:36:16.111Z,100448.00
2022-09-23T06:38:51.133Z,100450.69
2022-09-23T06:41:18.058Z,100454.69
2022-09-23T06:43:44.536Z,100454.94
2022-09-23T06:46:15.785Z,100453.06
2022-09-23T06:48:46.421Z,100457.09
2022-09-23T06:51:21.715Z,100453.66
2022-09-23T06:53:49.353Z,100456.38
2022-09-23T06:56:17.833Z,100456.38
2022-09-23T06:58:44.353Z,100459.66
2022-09-23T07:01:13.362Z,100460.25
2022-09-23T07:03:40.099Z,100473.91
2022-09-23T07:06:07.337Z,100476.59
2022-09-23T07:08:35.362Z,100479.78
2022-09-23T07:11:04.778Z,100469.91
2022-09-23T07:13:33.368Z,100476.06
2022-09-23T07:16:02.037Z,100479.25
2022-09-23T07:18:36.784Z,100484.63
2022-09-23T07:21:29.706Z,100484.78
2022-09-23T07:23:58.425Z,100496.94
2022-09-23T07:26:25.442Z,100491.56
2022-09-23T07:28:56.604Z,100494.50
2022-09-23T07:31:37.952Z,100501.75
2022-09-23T07:34:10.187Z,100497.47
2022-09-23T07:36:40.725Z,100502.31
2022-09-23T07:39:12.353Z,100504.47
2022-09-23T07:41:39.657Z,100506.31
2022-09-23T07:44:06.501Z,100509.81
2022-09-23T07:46:36.034Z,100503.38
2022-09-23T07:49:03.575Z,100514.63
2022-09-23T07:51:36.274Z,100514.06
2022-09-23T07:54:07.717Z,100521.03
2022-09-23T07:56:35.893Z,100516.47
2022-09-23T07:59:05.476Z,100517.28
2022-09-23T08:01:38.016Z,100515.44
2022-09-23T08:04:12.212Z,100518.91
2022-09-23T08:06:43.420Z,100519.69
2022-09-23T08:09:11.014Z,100514.34
2022-09-23T08:11:41.714Z,100509.81
2022-09-23T08:14:15.461Z,100519.72
2022-09-23T08:16:42.768Z,100535.97
2022-09-23T08:19:09.489Z,100525.56
2022-09-23T08:21:39.423Z,100526.34
2022-09-23T08:24:08.181Z,100526.13
2022-09-23T08:26:35.333Z,100536.25
2022-09-23T08:29:02.179Z,100528.81
2022-09-23T08:31:28.684Z,100529.84
2022-09-23T08:33:56.475Z,100518.38
2022-09-23T08:36:23.846Z,100525.34
2022-09-23T08:38:50.677Z,100530.66
2022-09-23T08:41:33.872Z,100539.50
2022-09-23T08:44:12.150Z,100535.47
2022-09-23T08:46:47.026Z,100540.53
2022-09-23T08:49:22.063Z,100542.13
2022-09-23T08:51:51.292Z,100533.56
2022-09-23T08:54:18.350Z,100537.84
2022-09-23T08:56:49.157Z,100537.31
2022-09-23T08:59:41.700Z,100542.94
2022-09-23T09:02:22.873Z,100544.50
2022-09-23T09:05:03.313Z,100541.81
2022-09-23T09:07:37.289Z,100545.84
2022-09-23T09:10:21.294Z,100545.28
2022-09-23T09:12:48.988Z,100538.81
2022-09-23T09:15:27.689Z,100534.97
2022-09-23T09:18:07.615Z,100535.97
2022-09-23T09:20:59.377Z,100535.38
2022-09-23T09:23:34.721Z,100528.34
2022-09-23T09:26:03.602Z,100535.69
2022-09-23T09:28:41.938Z,100528.63
2022-09-23T09:31:26.966Z,100533.84
2022-09-23T09:33:58.043Z,100538.00
2022-09-23T09:36:32.295Z,100528.19
2022-09-23T09:38:59.466Z,100530.19
2022-09-23T09:41:28.459Z,100525.63
2022-09-23T09:43:59.249Z,100527.91
2022-09-23T09:46:25.723Z,100524.41
2022-09-23T09:49:00.725Z,100529.25
2022-09-23T09:51:29.353Z,100525.72
2022-09-23T09:54:17.700Z,100515.81
2022-09-23T09:56:44.914Z,100527.94
2022-09-23T09:59:18.422Z,100517.03
2022-09-23T10:01:46.150Z,100524.44
2022-09-23T10:04:29.695Z,100522.84
2022-09-23T10:07:13.286Z,100521.47
2022-09-23T10:09:49.210Z,100516.88
2022-09-23T10:12:21.348Z,100511.00
2022-09-23T10:14:53.290Z,100518.38
2022-09-23T10:17:32.333Z,100512.41
2022-09-23T10:20:02.630Z,100504.72
2022-09-23T10:22:36.419Z,100508.69
2022-09-23T10:25:08.357Z,100510.03
2022-09-23T10:27:36.495Z,100507.13
2022-09-23T10:30:21.701Z,100508.72
2022-09-23T10:32:49.955Z,100505.63
2022-09-23T10:35:20.989Z,100496.09
2022-09-23T10:37:54.141Z,100500.25
2022-09-23T10:40:48.383Z,100498.16
2022-09-23T10:43:39.810Z,100494.78
2022-09-23T10:46:31.418Z,100481.03
2022-09-23T10:49:26.134Z,100492.69
2022-09-23T10:52:11.546Z,100489.91
2022-09-23T10:55:20.831Z,100487.56
2022-09-23T10:58:04.335Z,100475.59
2022-09-23T11:00:51.922Z,100483.06
2022-09-23T11:03:24.909Z,100489.91
2022-09-23T11:06:01.547Z,100481.16
2022-09-23T11:08:51.698Z,100476.47
2022-09-23T11:11:28.302Z,100476.00
2022-09-23T11:14:06.422Z,100481.47
2022-09-23T11:16:51.581Z,100468.09
2022-09-23T11:19:57.857Z,100466.56
2022-09-23T11:22:55.608Z,100474.50
2022-09-23T11:25:50.588Z,100457.59
2022-09-23T11:28:27.271Z,100458.53
2022-09-23T11:31:10.130Z,100448.75
2022-09-23T11:34:01.784Z,100450.78
2022-09-23T11:36:37.769Z,100453.78
2022-09-23T11:39:15.262Z,100448.97
2022-09-23T11:41:43.896Z,100460.00
2022-09-23T11:44:22.518Z,100462.34
2022-09-23T11:47:08.053Z,100462.28
2022-09-23T11:49:39.457Z,100463.06
2022-09-23T11:52:33.907Z,100449.56
2022-09-23T11:55:21.565Z,100447.47
2022-09-23T11:57:53.653Z,100450.53
2022-09-23T12:00:26.685Z,100439.84
2022-09-23T12:03:06.972Z,100442.19
2022-09-23T12:05:41.697Z,100436.44
2022-09-23T12:08:25.649Z,100444.59
2022-09-23T12:11:17.080Z,100443.84
2022-09-23T12:13:56.167Z,100448.34
2022-09-23T12:16:54.635Z,100440.63
2022-09-23T12:20:02.777Z,100433.25
2022-09-23T12:22:39.619Z,100433.81
2022-09-23T12:25:15.344Z,100437.50
2022-09-23T12:27:49.809Z,100431.41
2022-09-23T12:30:23.094Z,100419.69
2022-09-23T12:32:49.969Z,100420.16
2022-09-23T12:35:32.063Z,100420.28
2022-09-23T12:38:01.402Z,100428.19
2022-09-23T12:40:36.974Z,100431.28
2022-09-23T12:43:03.586Z,100436.34
2022-09-23T12:45:34.468Z,100428.44
2022-09-23T12:48:24.991Z,100425.50
2022-09-23T12:51:12.515Z,100427.13
2022-09-23T12:53:47.937Z,100423.06
2022-09-23T12:56:18.241Z,100419.44
2022-09-23T12:58:44.785Z,100425.22
2022-09-23T13:01:14.398Z,100418.84
2022-09-23T13:04:08.918Z,100422.22
2022-09-23T13:06:42.708Z,100418.81
2022-09-23T13:09:25.803Z,100413.81
2022-09-23T13:11:56.111Z,100405.19
2022-09-23T13:14:27.568Z,100403.72
2022-09-23T13:16:58.420Z,100409.03
2022-09-23T13:19:27.863Z,100404.75
2022-09-23T13:21:54.309Z,100410.97
2022-09-23T13:24:35.058Z,100405.28
2022-09-23T13:27:19.643Z,100410.31
2022-09-23T13:30:25.047Z,100403.44
2022-09-23T13:33:21.400Z,100410.44
2022-09-23T13:35:55.561Z,100409.66
2022-09-23T13:38:28.124Z,100401.13
2022-09-23T13:40:58.756Z,100405.09
2022-09-23T13:43:31.838Z,100401.22
2022-09-23T13:46:00.772Z,100402.03
2022-09-23T13:48:28.765Z,100388.03
2022-09-23T13:50:56.086Z,100401.22
2022-09-23T13:53:28.397Z,100385.97
2022-09-23T13:56:06.761Z,100398.44
2022-09-23T13:58:34.954Z,100383.19
2022-09-23T14:01:03.488Z,100376.34
2022-09-23T14:03:38.231Z,100381.97
2022-09-23T14:06:10.925Z,100383.66
2022-09-23T14:08:43.880Z,100374.63
2022-09-23T14:11:16.374Z,100378.91
2022-09-23T14:13:44.962Z,100387.22
2022-09-23T14:16:18.087Z,100378.47
2022-09-23T14:18:47.010Z,100368.03
2022-09-23T14:21:37.034Z,100380.75
2022-09-23T14:24:21.909Z,100376.41
2022-09-23T14:27:04.066Z,100371.25
2022-09-23T14:29:39.642Z,100380.78
2022-09-23T14:32:13.831Z,100380.97
2022-09-23T14:34:51.105Z,100379.56
2022-09-23T14:37:42.586Z,100381.63
2022-09-23T14:40:16.145Z,100378.25
2022-09-23T14:42:54.245Z,100374.13
2022-09-23T14:45:24.981Z,100373.09
2022-09-23T14:47:58.600Z,100371.31
2022-09-23T14:50:37.228Z,100365.69
2022-09-23T14:53:05.523Z,100363.03
2022-09-23T14:55:32.040Z,100364.19
2022-09-23T14:58:04.712Z,100363.09
2022-09-23T15:00:31.872Z,100365.06
2022-09-23T15:03:02.883Z,100356.88
2022-09-23T15:05:42.975Z,100367.59
2022-09-23T15:08:13.543Z,100352.50
2022-09-23T15:10:40.737Z,100356.19
2022-09-23T15:13:12.447Z,100357.63
2022-09-23T15:15:39.198Z,100355.25
2022-09-23T15:18:22.295Z,100362.06
2022-09-23T15:20:54.282Z,100358.69
2022-09-23T15:23:45.159Z,100350.34
2022-09-23T15:26:14.070Z,100348.88
2022-09-23T15:28:40.880Z,100345.19
2022-09-23T15:31:09.221Z,100342.56
2022-09-23T15:33:36.109Z,100333.78
2022-09-23T15:36:03.261Z,100335.66
2022-09-23T15:38:29.914Z,100336.88
2022-09-23T15:40:56.560Z,100339.59
2022-09-23T15:43:26.547Z,100345.00
2022-09-23T15:45:58.664Z,100335.84
2022-09-23T15:48:29.266Z,100334.06
2022-09-23T15:50:55.833Z,100337.16
2022-09-23T15:53:26.158Z,100340.34
2022-09-23T15:55:53.289Z,100342.97
2022-09-23T15:58:20.926Z,100342.81
2022-09-23T16:00:55.881Z,100347.81
2022-09-23T16:03:28.982Z,100347.56
2022-09-23T16:06:00.198Z,100337.63
2022-09-23T16:08:27.659Z,100345.81
2022-09-23T16:10:55.148Z,100345.81
2022-09-23T16:13:22.125Z,100349.72
2022-09-23T16:15:48.687Z,100346.00
2022-09-23T16:18:15.155Z,100342.19
2022-09-23T16:20:46.330Z,100349.16
2022-09-23T16:23:34.316Z,100343.31
2022-09-23T16:26:07.780Z,100345.94
2022-09-23T16:28:34.514Z,100342.78
2022-09-23T16:31:01.047Z,100351.38
2022-09-23T16:33:27.891Z,100350.38
2022-09-23T16:35:55.139Z,100354.00
2022-09-23T16:38:21.610Z,100355.28
2022-09-23T16:40:48.204Z,100354.03
2022-09-23T16:43:14.803Z,100354.53
2022-09-23T16:45:41.346Z,100356.31
2022-09-23T16:48:07.890Z,100363.16
2022-09-23T16:50:34.415Z,100365.66
2022-09-23T16:53:00.931Z,100362.00
2022-09-23T16:55:27.582Z,100361.34
2022-09-23T16:57:55.119Z,100362.63
2022-09-23T17:00:41.490Z,100370.28
2022-09-23T17:03:28.574Z,100360.91
2022-09-23T17:05:55.093Z,100360.63
2022-09-23T17:08:21.766Z,100365.34
2022-09-23T17:10:57.100Z,100369.41
2022-09-23T17:13:25.392Z,100373.91
2022-09-23T17:15:52.763Z,100361.06
2022-09-23T17:18:20.769Z,100367.91
2022-09-23T17:21:16.733Z,100373.78
2022-09-23T17:23:43.265Z,100374.59
2022-09-23T17:26:09.910Z,100385.09
2022-09-23T17:28:36.482Z,100376.81
2022-09-23T17:31:05.415Z,100378.38
2022-09-23T17:33:33.015Z,100380.00
2022-09-23T17:36:02.377Z,100381.09
2022-09-23T17:38:29.679Z,100390.00
2022-09-23T17:40:59.146Z,100392.25
2022-09-23T17:43:25.910Z,100396.88
2022-09-23T17:45:54.497Z,100394.63
2022-09-23T17:48:22.443Z,100398.91
2022-09-23T17:51:25.644Z,100397.16
2022-09-23T17:53:52.273Z,100401.88
2022-09-23T17:56:22.938Z,100409.13
2022-09-23T17:58:50.140Z,100416.84
2022-09-23T18:01:19.644Z,100402.47
2022-09-23T18:03:46.381Z,100405.28
2022-09-23T18:06:21.170Z,100404.72
2022-09-23T18:08:49.209Z,100413.41
2022-09-23T18:11:24.961Z,100416.44
2022-09-23T18:13:57.023Z,100415.09
2022-09-23T18:16:26.296Z,100427.91
2022-09-23T18:18:54.990Z,100429.13
2022-09-23T18:21:23.790Z,100426.38
2022-09-23T18:23:50.724Z,100424.41
2022-09-23T18:26:22.762Z,100434.31
2022-09-23T18:28:52.804Z,100432.34
2022-09-23T18:31:20.334Z,100435.56
2022-09-23T18:33:54.235Z,100445.03
2022-09-23T18:36:23.128Z,100442.53
2022-09-23T18:38:50.631Z,100444.53
2022-09-23T18:41:17.847Z,100445.47
2022-09-23T18:43:48.297Z,100443.75
2022-09-23T18:46:21.054Z,100452.81
2022-09-23T18:49:06.745Z,100451.03
2022-09-23T18:51:35.168Z,100455.75
2022-09-23T18:54:04.147Z,100457.91
2022-09-23T18:56:37.365Z,100458.53
2022-09-23T18:59:06.285Z,100468.00
2022-09-23T19:01:33.565Z,100463.22
2022-09-23T19:04:05.018Z,100459.03
2022-09-23T19:06:32.665Z,100460.63
2022-09-23T19:08:59.233Z,100468.59
2022-09-23T19:11:26.247Z,100471.38
2022-09-23T19:13:58.291Z,100471.00
2022-09-23T19:16:25.758Z,100471.16
2022-09-23T19:18:52.937Z,100473.41
2022-09-23T19:21:22.070Z,100465.81
2022-09-23T19:23:54.101Z,100475.66
2022-09-23T19:26:26.744Z,100468.47
2022-09-23T19:28:57.302Z,100482.81
2022-09-23T19:31:26.851Z,100474.59
2022-09-23T19:33:58.189Z,100481.28
2022-09-23T19:36:33.411Z,100490.72
2022-09-23T19:39:06.251Z,100486.66
2022-09-23T19:41:33.507Z,100484.41
2022-09-23T19:44:03.784Z,100494.56
2022-09-23T19:46:32.443Z,100493.69
2022-09-23T19:49:00.217Z,100492.47
2022-09-23T19:51:27.383Z,100492.16
2022-09-23T19:53:54.044Z,100492.16
2022-09-23T19:56:20.542Z,100496.25
2022-09-23T19:58:54.215Z,100489.19
2022-09-23T20:01:21.931Z,100491.16
2022-09-23T20:03:49.134Z,100497.09
2022-09-23T20:06:17.475Z,100488.91
2022-09-23T20:08:44.653Z,100497.06
2022-09-23T20:11:16.657Z,100498.31
2022-09-23T20:13:47.159Z,100497.00
2022-09-23T20:16:19.490Z,100492.00
2022-09-23T20:18:47.114Z,100493.06
2022-09-23T20:21:15.201Z,100498.44
2022-09-23T20:23:42.578Z,100500.94
2022-09-23T20:26:28.964Z,100500.63
2022-09-23T20:28:55.435Z,100497.25
2022-09-23T20:31:23.793Z,100493.72
2022-09-23T20:33:58.577Z,100492.94
2022-09-23T20:36:26.674Z,100492.25
2022-09-23T20:38:57.464Z,100497.91
2022-09-23T20:41:24.030Z,100494.34
2022-09-23T20:44:00.652Z,100500.63
2022-09-23T20:46:28.637Z,100501.22
2022-09-23T20:48:56.573Z,100504.19
2022-09-23T20:51:24.778Z,100506.34
2022-09-23T20:53:53.273Z,100497.56
2022-09-23T20:56:21.390Z,100504.06
2022-09-23T20:58:48.689Z,100505.25
2022-09-23T21:01:15.979Z,100512.78
2022-09-23T21:03:44.930Z,100515.75
2022-09-23T21:06:14.235Z,100505.88
2022-09-23T21:08:41.670Z,100509.69
2022-09-23T21:11:11.266Z,100505.41
2022-09-23T21:13:38.094Z,100512.44
2022-09-23T21:16:09.974Z,100506.84
2022-09-23T21:18:38.109Z,100511.72
2022-09-23T21:21:06.305Z,100499.44
2022-09-23T21:23:34.876Z,100509.59
2022-09-23T21:26:01.487Z,100509.38
2022-09-23T21:28:36.397Z,100501.94
2022-09-23T21:31:08.228Z,100506.78
2022-09-23T21:33:37.395Z,100505.75
2022-09-23T21:36:06.355Z,100505.75
2022-09-23T21:38:37.074Z,100509.78
2022-09-23T21:41:07.199Z,100505.81
2022-09-23T21:43:36.003Z,100502.56
2022-09-23T21:46:14.409Z,100501.78
2022-09-23T21:48:42.387Z,100507.16
2022-09-23T21:51:12.959Z,100500.53
2022-09-23T21:53:40.998Z,100506.66
2022-09-23T21:56:18.093Z,100501.56
2022-09-23T21:58:47.005Z,100511.72
2022-09-23T22:01:18.186Z,100498.94
2022-09-23T22:03:49.774Z,100510.50
2022-09-23T22:06:21.286Z,100507.06
2022-09-23T22:08:54.107Z,100509.28
2022-09-23T22:11:41.054Z,100505.50
2022-09-23T22:14:10.767Z,100509.06
2022-09-23T22:16:37.357Z,100513.91
2022-09-23T22:19:07.523Z,100513.97
2022-09-23T22:21:36.743Z,100507.56
2022-09-23T22:24:04.850Z,100501.97
2022-09-23T22:26:33.849Z,100500.44
2022-09-23T22:29:18.992Z,100506.28
2022-09-23T22:32:03.747Z,100499.66
2022-09-23T22:34:49.053Z,100500.50
2022-09-23T22:37:19.983Z,100495.19
2022-09-23T22:39:46.600Z,100497.84
2022-09-23T22:42:13.427Z,100498.91
2022-09-23T22:44:39.950Z,100506.19
2022-09-23T22:47:07.091Z,100507.03
2022-09-23T22:49:33.726Z,100509.72
2022-09-23T22:52:02.342Z,100503.84
2022-09-23T22:54:33.364Z,100505.22
2022-09-23T22:57:03.200Z,100504.47
2022-09-23T22:59:30.091Z,100499.91
2022-09-23T23:01:57.222Z,100502.03
2022-09-23T23:04:23.807Z,100507.94
2022-09-23T23:06:50.288Z,100502.84
2022-09-23T23:09:18.474Z,100506.31
2022-09-23T23:11:45.601Z,100500.75
2022-09-23T23:14:14.437Z,100509.31
2022-09-23T23:16:40.987Z,100502.38
2022-09-23T23:19:14.151Z,100499.69
2022-09-23T23:21:44.502Z,100499.94
2022-09-23T23:24:16.420Z,100505.84
2022-09-23T23:26:43.050Z,100509.06
2022-09-23T23:29:11.771Z,100500.78
2022-09-23T23:31:38.764Z,100508.56
2022-09-23T23:34:07.162Z,100504.53
2022-09-23T23:36:34.147Z,100504.31
2022-09-23T23:39:00.644Z,100499.75
2022-09-23T23:41:28.365Z,100497.09
2022-09-23T23:43:58.195Z,100497.41
2022-09-23T23:46:26.578Z,100505.41
2022-09-23T23:48:54.169Z,100501.94
2022-09-23T23:51:21.498Z,100496.91
2022-09-23T23:53:48.309Z,100496.09
2022-09-23T23:56:17.135Z,100495.06
2022-09-23T23:58:44.462Z,100500.41
